createdAt,value
2019-02-28T00:01:43.266Z,9.00
2019-02-28T00:04:32.973Z,7.10
2019-02-28T00:07:12.481Z,6.60
2019-02-28T00:09:42.084Z,7.00
2019-02-28T00:17:48.620Z,7.13
2019-02-28T00:20:18.197Z,7.27
2019-02-28T00:22:49.275Z,7.63
2019-02-28T00:25:24.691Z,8.65
2019-02-28T00:27:54.218Z,8.47
2019-02-28T00:30:37.356Z,8.00
2019-02-28T00:33:07.372Z,8.00
2019-02-28T00:35:37.250Z,8.07
2019-02-28T00:38:06.874Z,8.05
2019-02-28T00:43:31.316Z,7.43
2019-02-28T00:48:54.718Z,8.97
2019-02-28T00:51:24.281Z,9.00
2019-02-28T00:53:53.865Z,8.20
2019-02-28T00:56:23.448Z,9.40
2019-02-28T00:58:53.001Z,10.17
2019-02-28T01:01:22.542Z,9.00
2019-02-28T01:03:53.701Z,9.07
2019-02-28T01:06:23.315Z,11.30
2019-02-28T01:08:56.128Z,10.77
2019-02-28T01:14:10.974Z,10.10
2019-02-28T01:16:42.170Z,9.58
2019-02-28T01:19:11.682Z,10.50
2019-02-28T01:21:55.423Z,11.40
2019-02-28T01:24:24.940Z,10.57
2019-02-28T01:26:54.638Z,11.90
2019-02-28T01:29:24.200Z,14.07
2019-02-28T01:34:47.804Z,15.90
2019-02-28T01:37:17.332Z,16.73
2019-02-28T01:39:46.856Z,16.83
2019-02-28T01:42:20.080Z,15.40
2019-02-28T01:45:09.783Z,16.80
2019-02-28T01:47:44.828Z,16.10
2019-02-28T01:53:02.968Z,14.10
2019-02-28T01:55:32.590Z,16.03
2019-02-28T02:00:53.588Z,13.95
2019-02-28T02:03:42.005Z,13.07
2019-02-28T02:06:11.680Z,13.07
2019-02-28T02:08:53.808Z,14.83
2019-02-28T02:17:01.096Z,13.73
2019-02-28T02:19:39.529Z,16.80
2019-02-28T02:22:10.102Z,14.78
2019-02-28T02:25:02.936Z,14.43
2019-02-28T02:27:36.444Z,16.50
2019-02-28T02:30:28.183Z,15.80
2019-02-28T02:32:57.766Z,13.98
2019-02-28T02:35:27.295Z,15.17
2019-02-28T02:37:56.920Z,16.50
2019-02-28T02:40:26.464Z,16.12
2019-02-28T02:42:56.021Z,15.27
2019-02-28T02:45:25.548Z,15.67
2019-02-28T02:47:55.162Z,17.87
2019-02-28T02:50:24.787Z,14.70
2019-02-28T02:52:54.371Z,15.80
2019-02-28T02:55:28.046Z,17.47
2019-02-28T02:58:07.992Z,19.17
2019-02-28T03:00:37.593Z,19.82
2019-02-28T03:03:07.822Z,19.30
2019-02-28T03:05:43.875Z,17.90
2019-02-28T03:08:13.448Z,19.67
2019-02-28T03:10:43.040Z,19.83
2019-02-28T03:13:12.575Z,18.93
2019-02-28T03:15:42.137Z,22.00
2019-02-28T03:21:05.408Z,20.77
2019-02-28T03:23:40.132Z,19.10
2019-02-28T03:26:25.284Z,19.77
2019-02-28T03:28:56.518Z,20.30
2019-02-28T03:31:26.266Z,21.90
2019-02-28T03:33:55.909Z,20.48
2019-02-28T03:36:25.488Z,20.90
2019-02-28T03:38:55.017Z,22.20
2019-02-28T03:41:24.576Z,21.60
2019-02-28T03:43:55.714Z,22.17
2019-02-28T03:46:37.458Z,21.57
2019-02-28T03:49:11.006Z,21.83
2019-02-28T03:51:43.913Z,23.05
2019-02-28T03:54:13.454Z,23.83
2019-02-28T03:56:43.035Z,22.90
2019-02-28T03:59:18.171Z,25.20
2019-02-28T04:02:21.000Z,23.77
2019-02-28T04:05:28.447Z,22.77
2019-02-28T04:08:04.195Z,23.47
2019-02-28T04:10:54.742Z,24.87
2019-02-28T04:13:43.385Z,26.63
2019-02-28T04:16:13.036Z,25.77
2019-02-28T04:18:46.131Z,22.63
2019-02-28T04:21:19.745Z,23.73
2019-02-28T04:24:12.896Z,24.87
2019-02-28T04:26:45.435Z,24.77
2019-02-28T04:29:14.989Z,24.98
2019-02-28T04:31:44.517Z,25.13
2019-02-28T04:34:14.442Z,25.95
2019-02-28T04:37:08.544Z,25.57
2019-02-28T04:39:45.075Z,24.95
2019-02-28T04:42:14.621Z,28.40
2019-02-28T04:44:44.138Z,27.35
2019-02-28T04:47:13.662Z,27.55
2019-02-28T04:49:43.186Z,30.50
2019-02-28T04:52:25.066Z,30.20
2019-02-28T04:55:06.477Z,27.93
2019-02-28T04:57:36.983Z,30.90
2019-02-28T05:00:07.146Z,31.90
2019-02-28T05:02:36.646Z,30.60
2019-02-28T05:05:06.217Z,35.47
2019-02-28T05:07:36.218Z,31.10
2019-02-28T05:10:06.273Z,33.60
2019-02-28T05:12:40.002Z,33.33
2019-02-28T05:15:07.482Z,32.40
2019-02-28T05:17:37.454Z,27.00
2019-02-28T05:20:10.774Z,28.93
2019-02-28T05:22:38.853Z,25.60
2019-02-28T05:25:08.436Z,25.33
2019-02-28T05:27:38.133Z,24.87
2019-02-28T05:30:09.691Z,26.10
2019-02-28T05:32:39.237Z,23.50
2019-02-28T05:35:09.162Z,25.43
2019-02-28T05:37:38.789Z,27.45
2019-02-28T05:40:10.219Z,23.17
2019-02-28T05:42:39.823Z,26.03
2019-02-28T05:45:11.466Z,26.90
2019-02-28T05:47:47.513Z,23.90
2019-02-28T05:50:27.192Z,24.05
2019-02-28T05:52:56.763Z,23.37
2019-02-28T05:55:26.362Z,24.47
2019-02-28T05:57:56.003Z,26.03
2019-02-28T06:03:21.689Z,27.57
2019-02-28T06:05:51.301Z,29.07
2019-02-28T06:08:20.821Z,27.33
2019-02-28T06:11:09.621Z,26.90
2019-02-28T06:13:39.157Z,27.90
2019-02-28T06:16:12.318Z,26.77
2019-02-28T06:18:58.997Z,27.03
2019-02-28T06:21:40.845Z,28.83
2019-02-28T06:24:12.747Z,25.87
2019-02-28T06:26:47.174Z,26.17
2019-02-28T06:29:16.692Z,27.27
2019-02-28T06:31:48.585Z,27.43
2019-02-28T06:34:39.466Z,25.45
2019-02-28T06:37:13.796Z,27.17
2019-02-28T06:39:43.302Z,27.50
2019-02-28T06:42:12.835Z,29.10
2019-02-28T06:44:42.532Z,30.63
2019-02-28T06:47:14.193Z,28.57
2019-02-28T06:49:48.913Z,33.80
2019-02-28T06:52:18.428Z,29.37
2019-02-28T06:57:44.213Z,31.00
2019-02-28T07:03:27.549Z,32.60
2019-02-28T07:05:57.555Z,28.20
2019-02-28T07:08:33.974Z,28.73
2019-02-28T07:11:03.532Z,32.70
2019-02-28T07:13:33.085Z,38.60
2019-02-28T07:16:04.363Z,27.17
2019-02-28T07:18:39.969Z,31.80
2019-02-28T07:21:09.484Z,32.33
2019-02-28T07:23:58.040Z,31.37
2019-02-28T07:29:42.661Z,28.50
2019-02-28T07:32:18.285Z,27.63
2019-02-28T07:34:47.845Z,32.27
2019-02-28T07:37:18.893Z,31.70
2019-02-28T07:39:54.498Z,37.50
2019-02-28T07:42:24.761Z,34.53
2019-02-28T07:47:43.433Z,34.57
2019-02-28T07:53:26.389Z,32.60
2019-02-28T07:55:55.982Z,30.33
2019-02-28T08:01:06.620Z,32.57
2019-02-28T08:03:36.177Z,34.50
2019-02-28T08:06:05.921Z,31.12
2019-02-28T08:08:35.467Z,33.45
2019-02-28T08:11:06.093Z,30.60
2019-02-28T08:13:37.728Z,32.80
2019-02-28T08:16:12.847Z,33.38
2019-02-28T08:18:51.168Z,35.98
2019-02-28T08:21:30.036Z,37.88
2019-02-28T08:24:02.492Z,34.20
2019-02-28T08:26:36.427Z,31.70
2019-02-28T08:29:07.980Z,32.33
2019-02-28T08:31:37.449Z,32.50
2019-02-28T08:34:06.986Z,33.73
2019-02-28T08:36:36.557Z,35.13
2019-02-28T08:39:28.090Z,32.90
2019-02-28T08:42:02.589Z,29.17
2019-02-28T08:44:34.291Z,33.70
2019-02-28T08:47:04.133Z,31.60
2019-02-28T08:49:33.768Z,37.57
2019-02-28T08:52:15.864Z,36.60
2019-02-28T08:54:45.455Z,37.50
2019-02-28T08:57:15.073Z,32.37
2019-02-28T08:59:44.724Z,37.63
2019-02-28T09:02:18.115Z,30.30
2019-02-28T09:05:06.706Z,30.37
2019-02-28T09:07:42.303Z,31.90
2019-02-28T09:10:15.114Z,33.07
2019-02-28T09:12:44.756Z,32.65
2019-02-28T09:15:15.020Z,37.97
2019-02-28T09:17:44.664Z,34.20
2019-02-28T09:20:14.626Z,29.67
2019-02-28T09:22:44.365Z,32.45
2019-02-28T09:25:14.926Z,33.90
2019-02-28T09:27:44.523Z,31.12
2019-02-28T09:30:17.225Z,32.56
2019-02-28T09:32:48.297Z,33.42
2019-02-28T09:35:37.857Z,34.67
2019-02-28T09:38:13.237Z,32.30
2019-02-28T09:40:57.958Z,30.93
2019-02-28T09:43:46.834Z,27.37
2019-02-28T09:46:16.466Z,31.02
2019-02-28T09:48:46.008Z,31.25
2019-02-28T09:51:17.193Z,33.13
2019-02-28T09:53:47.327Z,32.30
2019-02-28T09:56:23.772Z,30.90
2019-02-28T09:58:53.399Z,33.23
2019-02-28T10:01:24.443Z,31.47
2019-02-28T10:04:03.273Z,31.60
2019-02-28T10:06:33.305Z,29.27
2019-02-28T10:09:44.380Z,29.23
2019-02-28T10:12:19.700Z,36.13
2019-02-28T10:14:49.344Z,33.80
2019-02-28T10:17:19.044Z,35.93
2019-02-28T10:19:51.973Z,30.40
2019-02-28T10:22:39.586Z,31.12
2019-02-28T10:25:10.130Z,33.00
2019-02-28T10:27:40.185Z,32.65
2019-02-28T10:30:15.938Z,30.45
2019-02-28T10:32:44.593Z,31.50
2019-02-28T10:35:54.200Z,32.30
2019-02-28T10:38:23.841Z,30.20
2019-02-28T10:40:55.211Z,30.30
2019-02-28T10:43:24.771Z,31.80
2019-02-28T10:45:54.368Z,28.45
2019-02-28T10:48:23.922Z,30.97
2019-02-28T10:50:53.507Z,31.20
2019-02-28T10:53:23.217Z,30.10
2019-02-28T10:55:54.476Z,30.45
2019-02-28T10:58:43.500Z,30.07
2019-02-28T11:01:14.140Z,30.70
2019-02-28T11:03:43.704Z,29.63
2019-02-28T11:06:13.297Z,27.93
2019-02-28T11:08:44.431Z,28.30
2019-02-28T11:11:19.921Z,26.40
2019-02-28T11:13:49.580Z,31.60
2019-02-28T11:16:20.431Z,30.33
2019-02-28T11:19:09.723Z,28.93
2019-02-28T11:21:39.435Z,29.10
2019-02-28T11:24:09.205Z,25.92
2019-02-28T11:26:41.313Z,28.33
2019-02-28T11:29:29.206Z,24.67
2019-02-28T11:31:59.084Z,25.77
2019-02-28T11:35:08.559Z,26.80
2019-02-28T11:37:38.442Z,27.17
2019-02-28T11:40:09.250Z,31.70
2019-02-28T11:42:39.040Z,26.63
2019-02-28T11:45:13.374Z,27.67
2019-02-28T11:47:43.454Z,27.90
2019-02-28T11:50:13.250Z,28.63
2019-02-28T11:52:42.912Z,26.00
2019-02-28T11:55:12.808Z,26.73
2019-02-28T11:57:42.594Z,29.70
2019-02-28T12:00:16.540Z,31.43
2019-02-28T12:02:53.100Z,29.85
2019-02-28T12:05:36.552Z,29.33
2019-02-28T12:08:09.569Z,26.77
2019-02-28T12:10:43.118Z,28.83
2019-02-28T12:13:12.726Z,28.57
2019-02-28T12:15:42.417Z,28.23
2019-02-28T12:18:12.099Z,27.37
2019-02-28T12:20:41.699Z,26.60
2019-02-28T12:23:11.335Z,29.25
2019-02-28T12:25:42.804Z,27.30
2019-02-28T12:31:06.366Z,29.97
2019-02-28T12:33:36.030Z,29.98
2019-02-28T12:36:05.829Z,30.80
2019-02-28T12:38:35.675Z,26.40
2019-02-28T12:41:05.522Z,27.43
2019-02-28T12:43:35.115Z,28.30
2019-02-28T12:46:04.987Z,25.23
2019-02-28T12:48:34.742Z,26.80
2019-02-28T12:51:05.382Z,27.07
2019-02-28T12:53:56.211Z,27.80
2019-02-28T12:56:31.519Z,24.37
2019-02-28T12:59:01.150Z,28.75
2019-02-28T13:01:33.200Z,27.87
2019-02-28T13:04:22.296Z,25.30
2019-02-28T13:09:59.922Z,26.23
2019-02-28T13:12:29.971Z,28.63
2019-02-28T13:14:59.573Z,27.32
2019-02-28T13:17:31.660Z,29.43
2019-02-28T13:20:20.924Z,25.00
2019-02-28T13:22:55.629Z,28.07
2019-02-28T13:25:42.756Z,26.17
2019-02-28T13:28:12.365Z,25.80
2019-02-28T13:30:49.304Z,26.70
2019-02-28T13:33:18.933Z,26.77
2019-02-28T13:35:48.519Z,26.27
2019-02-28T13:38:19.549Z,26.00
2019-02-28T13:40:55.366Z,23.60
2019-02-28T13:43:24.964Z,26.23
2019-02-28T13:45:56.216Z,27.27
2019-02-28T13:48:33.797Z,25.40
2019-02-28T13:51:08.932Z,26.05
2019-02-28T13:53:38.593Z,26.27
2019-02-28T13:56:29.044Z,26.07
2019-02-28T13:59:04.986Z,25.23
2019-02-28T14:01:34.562Z,27.40
2019-02-28T14:04:18.698Z,28.87
2019-02-28T14:06:52.391Z,26.50
2019-02-28T14:09:26.073Z,26.77
2019-02-28T14:11:55.980Z,24.17
2019-02-28T14:14:25.571Z,28.93
2019-02-28T14:16:58.386Z,27.42
2019-02-28T14:19:45.725Z,24.73
2019-02-28T14:22:15.366Z,26.00
2019-02-28T14:24:44.908Z,31.70
2019-02-28T14:27:14.611Z,25.63
2019-02-28T14:29:48.387Z,23.90
2019-02-28T14:32:34.636Z,26.33
2019-02-28T14:35:05.170Z,26.17
2019-02-28T14:37:34.793Z,28.30
2019-02-28T14:40:25.181Z,25.40
2019-02-28T14:43:14.419Z,26.52
2019-02-28T14:45:44.171Z,25.10
2019-02-28T14:48:13.877Z,26.60
2019-02-28T14:50:43.698Z,26.03
2019-02-28T14:53:14.559Z,28.02
2019-02-28T14:55:44.388Z,31.35
2019-02-28T14:58:14.045Z,26.67
2019-02-28T15:00:43.673Z,27.07
2019-02-28T15:03:25.183Z,25.47
2019-02-28T15:05:56.271Z,27.25
2019-02-28T15:08:47.463Z,24.47
2019-02-28T15:11:17.633Z,25.30
2019-02-28T15:13:47.241Z,26.35
2019-02-28T15:16:16.973Z,25.82
2019-02-28T15:18:47.723Z,25.23
2019-02-28T15:21:23.946Z,26.60
2019-02-28T15:23:53.608Z,28.37
2019-02-28T15:26:26.657Z,26.97
2019-02-28T15:29:00.710Z,28.00
2019-02-28T15:31:30.462Z,26.85
2019-02-28T15:34:02.251Z,25.80
2019-02-28T15:36:31.629Z,29.40
2019-02-28T15:39:01.354Z,28.27
2019-02-28T15:41:33.858Z,28.33
2019-02-28T15:44:25.715Z,28.93
2019-02-28T15:46:59.837Z,28.40
2019-02-28T15:49:34.683Z,25.53
2019-02-28T15:52:05.290Z,29.57
2019-02-28T15:54:56.923Z,29.87
2019-02-28T15:57:31.846Z,27.17
2019-02-28T16:02:43.101Z,27.27
2019-02-28T16:05:13.026Z,27.73
2019-02-28T16:07:42.742Z,28.17
2019-02-28T16:10:32.139Z,26.23
2019-02-28T16:13:08.582Z,25.40
2019-02-28T16:15:38.181Z,27.47
2019-02-28T16:18:08.797Z,27.30
2019-02-28T16:20:44.457Z,26.80
2019-02-28T16:23:14.151Z,26.57
2019-02-28T16:28:25.342Z,27.55
2019-02-28T16:30:54.975Z,26.97
2019-02-28T16:33:25.454Z,27.87
2019-02-28T16:36:02.098Z,26.50
2019-02-28T16:38:33.250Z,29.95
2019-02-28T16:41:04.305Z,26.35
2019-02-28T16:43:34.079Z,27.53
2019-02-28T16:46:15.497Z,26.00
2019-02-28T16:48:45.663Z,27.90
2019-02-28T16:51:15.271Z,28.83
2019-02-28T16:53:47.991Z,25.63
2019-02-28T16:59:03.996Z,27.30
2019-02-28T17:01:33.542Z,26.50
2019-02-28T17:04:22.217Z,26.87
2019-02-28T17:06:51.843Z,27.80
2019-02-28T17:09:26.705Z,27.17
2019-02-28T17:12:15.406Z,26.33
2019-02-28T17:14:47.897Z,23.60
2019-02-28T17:17:21.508Z,27.93
2019-02-28T17:19:51.078Z,29.27
2019-02-28T17:22:23.767Z,27.48
2019-02-28T17:25:11.266Z,27.30
2019-02-28T17:28:00.115Z,27.83
2019-02-28T17:30:49.366Z,25.10
2019-02-28T17:33:19.041Z,26.10
2019-02-28T17:35:49.265Z,26.65
2019-02-28T17:38:18.984Z,26.40
2019-02-28T17:40:48.559Z,27.10
2019-02-28T17:43:18.099Z,24.18
2019-02-28T17:45:50.589Z,30.82
2019-02-28T17:48:52.598Z,27.15
2019-02-28T17:55:37.669Z,28.17
2019-02-28T17:58:12.627Z,28.52
2019-02-28T18:01:09.986Z,26.60
2019-02-28T18:07:23.674Z,30.17
2019-02-28T18:10:51.133Z,26.77
2019-02-28T18:13:59.433Z,27.13
2019-02-28T18:17:07.474Z,29.83
2019-02-28T18:20:16.188Z,27.20
2019-02-28T18:26:16.265Z,28.20
2019-02-28T18:29:24.390Z,27.50
2019-02-28T18:31:57.092Z,26.97
2019-02-28T18:34:44.552Z,27.50
2019-02-28T18:37:14.112Z,28.55
2019-02-28T18:39:44.726Z,27.82
2019-02-28T18:42:20.761Z,28.23
2019-02-28T18:44:50.351Z,27.58
2019-02-28T18:47:19.887Z,30.33
2019-02-28T18:49:49.502Z,29.42
2019-02-28T18:52:20.220Z,27.30
2019-02-28T18:55:05.583Z,27.30
2019-02-28T18:57:33.489Z,30.77
2019-02-28T19:00:05.548Z,28.40
2019-02-28T19:02:35.058Z,32.17
2019-02-28T19:05:07.035Z,29.05
2019-02-28T19:07:37.758Z,29.10
2019-02-28T19:10:08.030Z,28.25
2019-02-28T19:12:37.840Z,30.33
2019-02-28T19:15:07.842Z,34.17
2019-02-28T19:17:37.978Z,31.30
2019-02-28T19:20:08.399Z,34.10
2019-02-28T19:22:38.904Z,28.73
2019-02-28T19:25:08.790Z,32.03
2019-02-28T19:27:38.413Z,33.00
2019-02-28T19:30:10.194Z,31.63
2019-02-28T19:32:41.571Z,29.40
2019-02-28T19:35:11.238Z,28.07
2019-02-28T19:37:40.895Z,27.25
2019-02-28T19:40:10.700Z,27.03
2019-02-28T19:42:40.361Z,31.77
2019-02-28T19:45:12.762Z,31.07
2019-02-28T19:47:42.313Z,31.23
2019-02-28T19:50:11.937Z,30.30
2019-02-28T19:52:41.474Z,34.50
2019-02-28T19:55:12.188Z,31.57
2019-02-28T19:57:43.533Z,33.87
2019-02-28T20:00:15.680Z,36.00
2019-02-28T20:03:04.478Z,33.47
2019-02-28T20:05:34.019Z,33.93
2019-02-28T20:08:03.975Z,32.67
2019-02-28T20:10:33.592Z,33.03
2019-02-28T20:15:53.464Z,31.20
2019-02-28T20:18:23.122Z,31.93
2019-02-28T20:20:52.712Z,34.40
2019-02-28T20:23:22.309Z,32.90
2019-02-28T20:28:52.501Z,41.73
2019-02-28T20:31:22.066Z,34.20
2019-02-28T20:33:51.607Z,30.40
2019-02-28T20:36:21.206Z,34.97
2019-02-28T20:38:52.414Z,35.37
2019-02-28T20:41:22.001Z,42.07
2019-02-28T20:43:51.529Z,36.10
2019-02-28T20:46:21.093Z,33.40
2019-02-28T20:48:50.639Z,32.13
2019-02-28T20:51:20.231Z,30.63
2019-02-28T20:53:51.439Z,34.30
2019-02-28T20:56:21.084Z,28.43
2019-02-28T20:58:50.615Z,30.77
2019-02-28T21:01:20.200Z,34.80
2019-02-28T21:03:49.798Z,31.80
2019-02-28T21:06:19.382Z,34.90
2019-02-28T21:11:39.082Z,33.17
2019-02-28T21:14:08.817Z,35.45
2019-02-28T21:16:38.815Z,30.52
2019-02-28T21:19:08.964Z,36.90
2019-02-28T21:21:57.619Z,31.85
2019-02-28T21:24:27.126Z,31.40
2019-02-28T21:26:56.712Z,31.40
2019-02-28T21:29:26.329Z,34.33
2019-02-28T21:31:57.489Z,35.17
2019-02-28T21:34:28.745Z,32.83
2019-02-28T21:36:58.569Z,32.93
2019-02-28T21:39:28.237Z,32.53
2019-02-28T21:41:57.940Z,34.70
2019-02-28T21:44:27.541Z,34.17
2019-02-28T21:46:58.769Z,34.23
2019-02-28T21:49:28.295Z,33.77
2019-02-28T21:51:57.920Z,34.17
2019-02-28T21:54:29.091Z,34.40
2019-02-28T21:56:58.694Z,30.63
2019-02-28T21:59:28.384Z,30.23
2019-02-28T22:02:18.655Z,33.75
2019-02-28T22:04:53.828Z,32.00
2019-02-28T22:07:23.381Z,33.40
2019-02-28T22:09:52.917Z,27.70
2019-02-28T22:12:22.433Z,34.70
2019-02-28T22:14:51.979Z,34.40
2019-02-28T22:17:21.538Z,28.92
2019-02-28T22:19:52.714Z,30.90
2019-02-28T22:22:22.286Z,29.50
2019-02-28T22:24:51.834Z,29.00
2019-02-28T22:27:21.440Z,24.57
2019-02-28T22:29:51.082Z,25.70
2019-02-28T22:32:24.836Z,26.20
2019-02-28T22:35:13.357Z,28.20
2019-02-28T22:37:43.011Z,28.77
2019-02-28T22:40:12.553Z,27.00
2019-02-28T22:42:42.147Z,35.80
2019-02-28T22:45:11.752Z,28.60
2019-02-28T22:47:41.313Z,30.92
2019-02-28T22:50:10.870Z,31.00
2019-02-28T22:52:40.632Z,27.13
2019-02-28T22:55:10.266Z,32.30
2019-02-28T22:57:39.775Z,33.30
2019-02-28T23:03:47.684Z,32.73
2019-02-28T23:06:17.281Z,31.40
2019-02-28T23:08:46.818Z,31.75
2019-02-28T23:11:16.388Z,30.62
2019-02-28T23:13:45.912Z,29.43
2019-02-28T23:16:15.524Z,34.27
2019-02-28T23:18:45.048Z,27.50
2019-02-28T23:21:14.572Z,29.47
2019-02-28T23:23:44.125Z,27.98
2019-02-28T23:26:15.186Z,29.55
2019-02-28T23:28:52.591Z,32.20
2019-02-28T23:31:48.150Z,29.30
2019-02-28T23:34:38.142Z,31.70
2019-02-28T23:37:07.667Z,31.67
2019-02-28T23:39:37.210Z,32.10
2019-02-28T23:42:06.743Z,32.43
2019-02-28T23:44:36.290Z,32.27
2019-02-28T23:47:05.855Z,34.48
2019-02-28T23:49:35.420Z,30.13
2019-02-28T23:52:04.996Z,31.43
2019-02-28T23:54:34.543Z,31.20
2019-02-28T23:57:04.195Z,31.40
2019-02-28T23:59:33.705Z,33.17
